createdAt,value
2018-06-21T00:00:05.005Z,21.60
2018-06-21T00:02:32.804Z,21.60
2018-06-21T00:05:00.573Z,21.60
2018-06-21T00:07:28.437Z,21.70
2018-06-21T00:09:56.240Z,21.90
2018-06-21T00:12:24.143Z,22.10
2018-06-21T00:14:51.900Z,22.10
2018-06-21T00:17:19.740Z,21.90
2018-06-21T00:19:47.494Z,22.10
2018-06-21T00:22:15.355Z,22.10
2018-06-21T00:24:43.148Z,21.90
2018-06-21T00:27:10.904Z,22.20
2018-06-21T00:32:06.380Z,21.50
2018-06-21T00:34:34.144Z,21.80
2018-06-21T00:37:01.961Z,21.80
2018-06-21T00:41:57.457Z,21.60
2018-06-21T00:44:25.260Z,21.80
2018-06-21T00:46:53.041Z,21.60
2018-06-21T00:49:20.833Z,21.50
2018-06-21T00:51:48.586Z,21.60
2018-06-21T00:54:16.387Z,21.50
2018-06-21T00:56:44.156Z,21.50
2018-06-21T00:59:11.941Z,21.00
2018-06-21T01:01:39.729Z,21.00
2018-06-21T01:04:07.543Z,21.10
2018-06-21T01:06:35.344Z,21.10
2018-06-21T01:13:59.172Z,20.90
2018-06-21T01:16:27.012Z,21.10
2018-06-21T01:18:54.896Z,21.20
2018-06-21T01:21:22.713Z,20.90
2018-06-21T01:23:50.481Z,20.70
2018-06-21T01:26:18.241Z,20.70
2018-06-21T01:28:46.009Z,20.70
2018-06-21T01:31:13.783Z,20.60
2018-06-21T01:33:41.538Z,20.70
2018-06-21T01:36:09.320Z,20.50
2018-06-21T01:38:37.036Z,20.30
2018-06-21T01:41:04.784Z,20.40
2018-06-21T01:43:32.532Z,20.40
2018-06-21T01:48:27.878Z,20.30
2018-06-21T01:50:55.613Z,20.30
2018-06-21T01:53:23.347Z,20.10
2018-06-21T01:55:51.080Z,20.20
2018-06-21T01:58:18.836Z,20.00
2018-06-21T02:00:46.573Z,19.80
2018-06-21T02:03:14.362Z,19.70
2018-06-21T02:05:42.105Z,19.60
2018-06-21T02:08:09.872Z,19.70
2018-06-21T02:10:37.635Z,20.10
2018-06-21T02:13:05.378Z,19.90
2018-06-21T02:15:33.102Z,19.70
2018-06-21T02:18:00.859Z,19.70
2018-06-21T02:20:28.589Z,19.80
2018-06-21T02:22:56.346Z,19.50
2018-06-21T02:25:24.119Z,19.60
2018-06-21T02:27:51.863Z,19.50
2018-06-21T02:30:19.608Z,19.60
2018-06-21T02:32:47.355Z,19.30
2018-06-21T02:35:15.085Z,18.90
2018-06-21T02:37:42.864Z,19.00
2018-06-21T02:40:10.591Z,19.40
2018-06-21T02:42:38.327Z,19.10
2018-06-21T02:45:06.118Z,19.50
2018-06-21T02:47:33.871Z,19.30
2018-06-21T02:50:01.640Z,19.10
2018-06-21T02:52:29.394Z,19.20
2018-06-21T02:54:57.237Z,18.90
2018-06-21T02:57:25.080Z,19.00
2018-06-21T02:59:52.831Z,18.80
2018-06-21T03:04:48.191Z,18.80
2018-06-21T03:07:15.928Z,18.80
2018-06-21T03:12:16.919Z,18.80
2018-06-21T03:14:44.679Z,18.70
2018-06-21T03:17:12.473Z,18.90
2018-06-21T03:19:40.237Z,18.60
2018-06-21T03:22:08.029Z,18.40
2018-06-21T03:24:35.786Z,18.20
2018-06-21T03:27:03.848Z,18.60
2018-06-21T03:29:31.559Z,18.30
2018-06-21T03:34:26.923Z,18.30
2018-06-21T03:36:55.057Z,18.30
2018-06-21T03:39:22.893Z,18.20
2018-06-21T03:41:50.660Z,18.10
2018-06-21T03:44:18.383Z,18.10
2018-06-21T03:46:46.123Z,18.50
2018-06-21T03:49:14.016Z,18.10
2018-06-21T03:51:41.783Z,18.50
2018-06-21T03:54:09.541Z,18.60
2018-06-21T03:56:37.316Z,18.40
2018-06-21T03:59:05.105Z,18.70
2018-06-21T04:01:32.880Z,18.60
2018-06-21T04:04:00.635Z,18.70
2018-06-21T04:06:28.417Z,19.00
2018-06-21T04:08:56.182Z,18.50
2018-06-21T04:16:19.568Z,18.60
2018-06-21T04:18:47.315Z,18.70
2018-06-21T04:21:15.079Z,18.60
2018-06-21T04:23:42.864Z,18.50
2018-06-21T04:28:38.233Z,18.80
2018-06-21T04:31:05.957Z,18.90
2018-06-21T04:36:01.375Z,19.10
2018-06-21T04:38:29.127Z,18.70
2018-06-21T04:40:56.901Z,19.00
2018-06-21T04:43:24.692Z,19.00
2018-06-21T04:45:52.485Z,19.10
2018-06-21T04:48:20.269Z,19.20
2018-06-21T04:50:48.020Z,19.20
2018-06-21T04:53:16.004Z,19.20
2018-06-21T04:55:43.735Z,19.20
2018-06-21T04:58:11.477Z,19.10
2018-06-21T05:00:39.264Z,19.20
2018-06-21T05:03:06.990Z,19.10
2018-06-21T05:05:34.779Z,19.20
2018-06-21T05:08:02.540Z,19.40
2018-06-21T05:10:30.287Z,19.40
2018-06-21T05:15:25.720Z,19.40
2018-06-21T05:17:53.500Z,19.20
2018-06-21T05:20:21.244Z,19.20
2018-06-21T05:22:49.006Z,19.40
2018-06-21T05:25:16.792Z,19.40
2018-06-21T05:27:44.500Z,19.20
2018-06-21T05:30:12.228Z,19.40
2018-06-21T05:32:39.991Z,19.20
2018-06-21T05:35:07.732Z,19.60
2018-06-21T05:40:03.192Z,20.00
2018-06-21T05:42:30.924Z,19.90
2018-06-21T05:47:26.355Z,19.90
2018-06-21T05:52:21.799Z,19.50
2018-06-21T05:54:49.588Z,19.30
2018-06-21T05:57:17.372Z,19.60
2018-06-21T05:59:45.085Z,19.70
2018-06-21T06:04:40.497Z,19.60
2018-06-21T06:07:08.263Z,19.50
2018-06-21T06:12:03.687Z,19.10
2018-06-21T06:14:31.422Z,19.10
2018-06-21T06:16:59.231Z,19.20
2018-06-21T06:19:27.017Z,18.90
2018-06-21T06:21:54.749Z,19.30
2018-06-21T06:24:22.543Z,19.20
2018-06-21T06:26:50.280Z,18.60
2018-06-21T06:29:18.004Z,18.40
2018-06-21T06:31:45.783Z,18.10
2018-06-21T06:34:13.507Z,18.10
2018-06-21T06:36:41.255Z,18.20
2018-06-21T06:39:19.012Z,18.00
2018-06-21T06:41:48.483Z,18.00
2018-06-21T06:44:16.572Z,17.90
2018-06-21T06:46:44.319Z,18.10
2018-06-21T06:49:12.477Z,17.90
2018-06-21T06:51:40.658Z,17.80
2018-06-21T06:54:09.505Z,18.00
2018-06-21T06:56:37.300Z,17.80
2018-06-21T06:59:05.359Z,18.40
2018-06-21T07:01:33.130Z,18.20
2018-06-21T07:04:00.978Z,18.30
2018-06-21T07:08:57.280Z,18.30
2018-06-21T07:11:26.424Z,18.30
2018-06-21T07:13:54.512Z,18.50
2018-06-21T07:16:22.416Z,18.60
2018-06-21T07:18:50.233Z,18.50
2018-06-21T07:21:18.427Z,18.70
2018-06-21T07:23:46.303Z,18.50
2018-06-21T07:26:14.122Z,18.40
2018-06-21T07:28:42.392Z,18.40
2018-06-21T07:31:10.263Z,18.40
2018-06-21T07:33:39.113Z,18.50
2018-06-21T07:36:06.935Z,18.50
2018-06-21T07:38:34.755Z,18.20
2018-06-21T07:41:02.572Z,18.50
2018-06-21T07:43:30.503Z,18.60
2018-06-21T07:45:58.311Z,18.30
2018-06-21T07:50:53.667Z,18.60
2018-06-21T07:53:21.463Z,18.70
2018-06-21T07:55:49.340Z,18.80
2018-06-21T07:58:17.448Z,18.80
2018-06-21T08:03:13.006Z,19.40
2018-06-21T08:05:40.780Z,19.20
2018-06-21T08:08:08.617Z,19.10
2018-06-21T08:10:36.428Z,19.40
2018-06-21T08:13:04.235Z,19.50
2018-06-21T08:17:59.808Z,19.40
2018-06-21T08:20:27.563Z,20.20
2018-06-21T08:22:55.339Z,20.00
2018-06-21T08:25:23.075Z,20.00
2018-06-21T08:27:50.972Z,20.30
2018-06-21T08:30:18.709Z,20.30
2018-06-21T08:32:46.452Z,19.70
2018-06-21T08:35:14.334Z,19.90
2018-06-21T08:37:42.168Z,19.60
2018-06-21T08:40:09.901Z,20.00
2018-06-21T08:42:37.691Z,19.90
2018-06-21T08:45:05.609Z,19.80
2018-06-21T08:47:33.372Z,20.00
2018-06-21T08:50:01.163Z,20.00
2018-06-21T08:52:28.925Z,20.00
2018-06-21T08:54:56.700Z,20.40
2018-06-21T08:57:24.475Z,20.10
2018-06-21T08:59:52.200Z,20.60
2018-06-21T09:02:20.026Z,20.80
2018-06-21T09:04:47.793Z,21.30
2018-06-21T09:09:43.199Z,21.60
2018-06-21T09:12:10.956Z,21.10
2018-06-21T09:14:38.680Z,20.90
2018-06-21T09:17:06.423Z,20.60
2018-06-21T09:22:01.985Z,20.80
2018-06-21T09:24:29.745Z,20.20
2018-06-21T09:26:57.593Z,20.60
2018-06-21T09:29:25.418Z,20.40
2018-06-21T09:34:21.150Z,21.00
2018-06-21T09:36:48.959Z,21.60
2018-06-21T09:39:22.453Z,21.50
2018-06-21T09:41:55.879Z,21.80
2018-06-21T09:44:28.986Z,23.40
2018-06-21T09:47:02.534Z,24.00
2018-06-21T09:49:31.564Z,24.80
2018-06-21T09:52:01.707Z,24.70
2018-06-21T09:54:29.736Z,22.70
2018-06-21T09:56:57.929Z,21.50
2018-06-21T09:59:25.995Z,21.50
2018-06-21T10:01:53.796Z,23.10
2018-06-21T10:04:21.650Z,24.60
2018-06-21T10:06:49.495Z,25.10
2018-06-21T10:09:17.437Z,25.80
2018-06-21T10:11:45.219Z,26.20
2018-06-21T10:14:12.971Z,25.00
2018-06-21T10:16:40.719Z,24.80
2018-06-21T10:19:08.592Z,24.30
2018-06-21T10:24:04.079Z,23.80
2018-06-21T10:26:31.900Z,24.70
2018-06-21T10:28:59.672Z,24.90
2018-06-21T10:33:55.124Z,24.90
2018-06-21T10:36:22.876Z,24.70
2018-06-21T10:38:50.647Z,25.10
2018-06-21T10:41:18.436Z,25.50
2018-06-21T10:43:46.250Z,23.50
2018-06-21T10:46:14.052Z,22.80
2018-06-21T10:48:41.857Z,22.60
2018-06-21T10:51:09.632Z,23.70
2018-06-21T10:53:37.415Z,24.30
2018-06-21T10:56:05.359Z,25.90
2018-06-21T10:58:33.187Z,24.90
2018-06-21T11:01:01.003Z,23.90
2018-06-21T11:03:28.871Z,24.70
2018-06-21T11:08:24.364Z,24.90
2018-06-21T11:10:52.197Z,25.70
2018-06-21T11:13:19.993Z,26.50
2018-06-21T11:15:47.820Z,27.40
2018-06-21T11:18:15.728Z,27.50
2018-06-21T11:20:43.661Z,25.30
2018-06-21T11:23:11.491Z,23.50
2018-06-21T11:28:07.127Z,24.60
2018-06-21T11:30:34.803Z,24.90
2018-06-21T11:33:02.628Z,25.90
2018-06-21T11:35:30.455Z,25.90
2018-06-21T11:37:58.247Z,25.80
2018-06-21T11:40:26.049Z,25.80
2018-06-21T11:42:53.837Z,27.20
2018-06-21T11:45:21.624Z,27.30
2018-06-21T11:47:49.472Z,25.60
2018-06-21T11:50:17.229Z,25.70
2018-06-21T11:57:40.302Z,27.20
2018-06-21T12:02:35.828Z,27.30
2018-06-21T12:05:03.650Z,27.80
2018-06-21T12:07:31.407Z,27.40
2018-06-21T12:09:59.192Z,27.90
2018-06-21T12:12:26.920Z,27.30
2018-06-21T12:14:54.703Z,27.40
2018-06-21T12:17:22.490Z,27.00
2018-06-21T12:19:50.316Z,26.80
2018-06-21T12:22:18.104Z,27.30
2018-06-21T12:24:45.870Z,28.30
2018-06-21T12:27:13.607Z,27.50
2018-06-21T12:29:41.345Z,26.80
2018-06-21T12:34:38.305Z,26.70
2018-06-21T12:37:06.279Z,27.30
2018-06-21T12:39:34.115Z,27.90
2018-06-21T12:44:29.636Z,26.40
2018-06-21T12:46:57.542Z,26.80
2018-06-21T12:49:25.328Z,27.30
2018-06-21T12:51:53.099Z,26.10
2018-06-21T12:54:20.868Z,26.10
2018-06-21T12:56:48.629Z,25.40
2018-06-21T12:59:17.249Z,26.10
2018-06-21T13:01:45.054Z,26.00
2018-06-21T13:04:12.836Z,26.40
2018-06-21T13:06:40.651Z,26.30
2018-06-21T13:09:19.587Z,26.10
2018-06-21T13:13:02.104Z,25.10
2018-06-21T13:15:29.877Z,24.20
2018-06-21T13:17:57.626Z,23.80
2018-06-21T13:20:25.472Z,23.80
2018-06-21T13:22:53.204Z,24.50
2018-06-21T13:25:20.983Z,24.60
2018-06-21T13:27:48.765Z,24.60
2018-06-21T13:30:16.508Z,24.80
2018-06-21T13:32:44.266Z,25.20
2018-06-21T13:35:12.088Z,24.40
2018-06-21T13:37:39.851Z,23.50
2018-06-21T13:40:07.705Z,23.50
2018-06-21T13:42:35.505Z,23.70
2018-06-21T13:45:03.541Z,23.40
2018-06-21T13:47:31.343Z,23.20
2018-06-21T13:57:22.125Z,23.20
2018-06-21T13:59:49.909Z,23.80
2018-06-21T14:02:17.770Z,24.00
2018-06-21T14:07:13.215Z,23.80
2018-06-21T14:09:40.983Z,24.10
2018-06-21T14:12:08.757Z,23.70
2018-06-21T14:14:36.522Z,23.90
2018-06-21T14:17:04.415Z,23.80
2018-06-21T14:21:59.850Z,23.70
2018-06-21T14:26:55.242Z,22.80
2018-06-21T14:29:23.062Z,23.60
2018-06-21T14:31:50.847Z,23.20
2018-06-21T14:34:18.668Z,23.10
2018-06-21T14:39:14.122Z,22.60
2018-06-21T14:41:41.940Z,22.60
2018-06-21T14:44:09.737Z,22.30
2018-06-21T14:46:37.522Z,22.90
2018-06-21T14:49:05.459Z,22.50
2018-06-21T14:54:00.832Z,22.90
2018-06-21T14:56:28.587Z,23.00
2018-06-21T14:58:56.422Z,22.90
2018-06-21T15:03:51.928Z,22.80
2018-06-21T15:06:19.709Z,22.60
2018-06-21T15:08:47.509Z,22.30
2018-06-21T15:11:15.314Z,21.90
2018-06-21T15:13:46.798Z,21.70
2018-06-21T15:18:42.943Z,20.80
2018-06-21T15:21:10.732Z,21.00
2018-06-21T15:23:38.600Z,21.10
2018-06-21T15:26:06.352Z,20.90
2018-06-21T15:28:35.101Z,21.20
2018-06-21T15:31:03.216Z,21.50
2018-06-21T15:35:58.715Z,20.80
2018-06-21T15:38:26.524Z,20.20
2018-06-21T15:40:54.348Z,20.50
2018-06-21T15:43:22.127Z,20.00
2018-06-21T15:45:49.937Z,20.20
2018-06-21T15:48:17.728Z,19.80
2018-06-21T15:50:45.668Z,18.90
2018-06-21T15:53:13.501Z,19.30
2018-06-21T15:55:41.276Z,19.40
2018-06-21T15:58:09.084Z,19.40
2018-06-21T16:00:36.855Z,19.80
2018-06-21T16:03:04.815Z,19.40
2018-06-21T16:05:32.580Z,19.30
2018-06-21T16:08:00.321Z,19.40
2018-06-21T16:10:28.120Z,19.70
2018-06-21T16:12:55.889Z,19.60
2018-06-21T16:15:23.680Z,19.70
2018-06-21T16:20:19.120Z,19.30
2018-06-21T16:22:46.938Z,19.50
2018-06-21T16:25:14.701Z,19.10
2018-06-21T16:27:42.554Z,19.50
2018-06-21T16:30:10.310Z,19.80
2018-06-21T16:32:38.091Z,19.70
2018-06-21T16:35:05.890Z,19.50
2018-06-21T16:40:01.384Z,18.70
2018-06-21T16:42:29.148Z,18.80
2018-06-21T16:44:56.872Z,18.50
2018-06-21T16:47:24.681Z,18.40
2018-06-21T16:49:52.452Z,18.50
2018-06-21T16:52:20.242Z,18.50
2018-06-21T16:54:48.046Z,18.50
2018-06-21T16:57:15.796Z,18.70
2018-06-21T17:02:11.255Z,18.90
2018-06-21T17:04:39.352Z,18.70
2018-06-21T17:07:07.166Z,18.60
2018-06-21T17:09:34.984Z,18.20
2018-06-21T17:12:02.788Z,18.20
2018-06-21T17:14:30.636Z,18.30
2018-06-21T17:16:58.429Z,18.10
2018-06-21T17:19:26.218Z,18.20
2018-06-21T17:21:54.100Z,18.30
2018-06-21T17:24:21.953Z,18.60
2018-06-21T17:26:49.815Z,18.20
2018-06-21T17:29:17.661Z,18.00
2018-06-21T17:31:45.449Z,17.90
2018-06-21T17:34:13.216Z,17.90
2018-06-21T17:36:41.314Z,18.00
2018-06-21T17:39:09.968Z,17.50
2018-06-21T17:41:37.763Z,17.40
2018-06-21T17:44:05.556Z,17.90
2018-06-21T17:46:33.341Z,17.80
2018-06-21T17:49:01.202Z,17.70
2018-06-21T17:51:29.098Z,17.80
2018-06-21T17:53:56.871Z,17.30
2018-06-21T17:56:24.643Z,17.70
2018-06-21T17:58:52.417Z,17.30
2018-06-21T18:01:20.180Z,17.50
2018-06-21T18:03:47.928Z,17.30
2018-06-21T18:06:15.728Z,17.20
2018-06-21T18:08:43.507Z,17.20
2018-06-21T18:11:11.308Z,16.90
2018-06-21T18:13:39.157Z,17.10
2018-06-21T18:16:06.900Z,17.00
2018-06-21T18:18:34.668Z,16.90
2018-06-21T18:21:02.416Z,17.20
2018-06-21T18:23:30.204Z,17.20
2018-06-21T18:25:58.020Z,17.30
2018-06-21T18:28:25.836Z,17.20
2018-06-21T18:33:21.275Z,16.70
2018-06-21T18:35:49.104Z,16.80
2018-06-21T18:38:16.896Z,16.70
2018-06-21T18:40:44.836Z,16.70
2018-06-21T18:43:12.895Z,16.70
2018-06-21T18:45:40.759Z,16.70
2018-06-21T18:48:08.593Z,17.20
2018-06-21T18:50:36.456Z,16.80
2018-06-21T18:53:04.296Z,17.00
2018-06-21T18:55:32.059Z,16.70
2018-06-21T18:57:59.823Z,16.60
2018-06-21T19:02:55.313Z,16.70
2018-06-21T19:05:23.073Z,16.50
2018-06-21T19:07:56.582Z,16.60
2018-06-21T19:10:30.066Z,16.60
2018-06-21T19:12:57.916Z,16.50
2018-06-21T19:15:26.202Z,16.50
2018-06-21T19:17:54.003Z,16.50
2018-06-21T19:20:21.768Z,16.50
2018-06-21T19:22:49.567Z,16.00
2018-06-21T19:25:17.424Z,16.40
2018-06-21T19:27:45.289Z,16.30
2018-06-21T19:30:13.144Z,16.00
2018-06-21T19:32:40.984Z,15.90
2018-06-21T19:35:08.736Z,16.10
2018-06-21T19:37:36.556Z,15.60
2018-06-21T19:40:04.442Z,15.90
2018-06-21T19:42:32.233Z,15.50
2018-06-21T19:45:00.035Z,15.90
2018-06-21T19:47:27.803Z,15.60
2018-06-21T19:49:55.866Z,15.50
2018-06-21T19:52:23.692Z,15.40
2018-06-21T19:54:51.464Z,15.20
2018-06-21T19:57:19.518Z,15.40
2018-06-21T19:59:47.381Z,15.40
2018-06-21T20:02:15.298Z,15.20
2018-06-21T20:04:43.300Z,15.30
2018-06-21T20:07:11.318Z,15.50
2018-06-21T20:09:39.158Z,15.30
2018-06-21T20:12:06.970Z,15.20
2018-06-21T20:14:34.774Z,15.30
2018-06-21T20:17:02.560Z,15.20
2018-06-21T20:19:35.924Z,15.00
2018-06-21T20:24:31.368Z,15.30
2018-06-21T20:26:59.162Z,14.90
2018-06-21T20:29:26.947Z,14.70
2018-06-21T20:31:55.149Z,14.90
2018-06-21T20:39:18.335Z,14.70
2018-06-21T20:41:46.193Z,14.70
2018-06-21T20:44:14.018Z,14.60
2018-06-21T20:46:41.776Z,14.40
2018-06-21T20:49:09.560Z,14.60
2018-06-21T20:51:37.316Z,14.40
2018-06-21T20:54:05.164Z,14.60
2018-06-21T20:56:33.009Z,14.40
2018-06-21T20:59:00.916Z,14.70
2018-06-21T21:01:28.672Z,14.50
2018-06-21T21:03:56.439Z,14.20
2018-06-21T21:06:24.174Z,14.20
2018-06-21T21:08:52.095Z,14.20
2018-06-21T21:11:19.906Z,14.30
2018-06-21T21:13:47.719Z,14.30
2018-06-21T21:16:15.434Z,14.20
2018-06-21T21:18:43.236Z,14.00
2018-06-21T21:21:10.995Z,13.90
2018-06-21T21:23:38.798Z,14.40
2018-06-21T21:26:06.528Z,13.80
2018-06-21T21:28:34.739Z,14.10
2018-06-21T21:31:02.968Z,14.20
2018-06-21T21:33:32.270Z,14.30
2018-06-21T21:36:00.372Z,13.80
2018-06-21T21:38:28.248Z,13.80
2018-06-21T21:40:55.988Z,13.70
2018-06-21T21:43:24.192Z,13.80
2018-06-21T21:48:19.816Z,13.70
2018-06-21T21:50:47.734Z,13.80
2018-06-21T21:53:15.701Z,13.60
2018-06-21T21:55:43.596Z,13.50
2018-06-21T21:58:11.363Z,13.80
2018-06-21T22:00:43.732Z,13.80
2018-06-21T22:03:11.496Z,13.70
2018-06-21T22:05:39.508Z,13.60
2018-06-21T22:08:07.661Z,13.40
2018-06-21T22:10:35.548Z,13.40
2018-06-21T22:13:03.471Z,13.10
2018-06-21T22:15:31.261Z,13.30
2018-06-21T22:17:59.055Z,13.20
2018-06-21T22:20:26.880Z,13.30
2018-06-21T22:22:55.363Z,13.10
2018-06-21T22:25:23.162Z,13.30
2018-06-21T22:27:50.972Z,13.20
2018-06-21T22:30:18.741Z,13.10
2018-06-21T22:32:46.510Z,13.30
2018-06-21T22:35:14.360Z,13.20
2018-06-21T22:37:42.256Z,13.20
2018-06-21T22:40:10.160Z,13.30
2018-06-21T22:42:38.034Z,13.20
2018-06-21T22:45:05.836Z,13.00
2018-06-21T22:47:33.659Z,13.30
2018-06-21T22:50:01.384Z,13.10
2018-06-21T22:52:29.156Z,13.30
2018-06-21T22:54:56.948Z,13.20
2018-06-21T22:57:24.685Z,13.20
2018-06-21T22:59:52.494Z,13.20
2018-06-21T23:02:20.268Z,13.00
2018-06-21T23:04:48.004Z,12.90
2018-06-21T23:07:15.782Z,13.20
2018-06-21T23:09:43.560Z,12.70
2018-06-21T23:12:11.373Z,12.60
2018-06-21T23:14:39.272Z,12.60
2018-06-21T23:17:07.081Z,12.70
2018-06-21T23:19:34.817Z,12.80
2018-06-21T23:24:30.855Z,12.40
2018-06-21T23:29:26.324Z,12.30
2018-06-21T23:31:54.184Z,12.30
2018-06-21T23:34:22.160Z,12.30
2018-06-21T23:36:50.476Z,12.20
2018-06-21T23:39:18.241Z,12.50
2018-06-21T23:41:46.008Z,12.40
2018-06-21T23:44:14.346Z,12.30
2018-06-21T23:46:42.844Z,12.40
2018-06-21T23:49:11.552Z,12.30
2018-06-21T23:54:09.004Z,12.20
2018-06-21T23:56:36.864Z,12.20
2018-06-21T23:59:04.779Z,12.40
